Time;durP1;ratioP1;P1;durP2;ratioP2;P2;SDS_P1;SDS_P2;PMS_P1;PMS_P2;Temp;Humidity;BMP_temperature;BMP_pressure;BME280_temperature;BME280_humidity;BME280_pressure;Samples;Min_cycle;Max_cycle;Signal;HPM_P1;HPM_P2
2023/12/04 00:00:36;;;;;;;14.20;11.83;;;0.20;99.90;;;;;;5027572;28;20415;-71
2023/12/04 00:03:04;;;;;;;11.77;10.43;;;0.20;99.90;;;;;;5032130;28;20422;-71
2023/12/04 00:05:30;;;;;;;11.43;10.30;;;0.20;99.90;;;;;;5029436;28;20431;-71
2023/12/04 00:07:57;;;;;;;14.02;11.43;;;0.30;99.90;;;;;;5033486;28;20418;-71
2023/12/04 00:10:24;;;;;;;13.27;11.15;;;0.30;99.90;;;;;;5031093;28;20425;-71
2023/12/04 00:12:50;;;;;;;12.97;11.00;;;0.30;99.90;;;;;;5024380;28;20928;-71
2023/12/04 00:15:19;;;;;;;10.77;9.55;;;0.30;99.90;;;;;;5024338;28;20440;-71
2023/12/04 00:17:45;;;;;;;12.23;10.90;;;0.30;99.90;;;;;;5021607;28;20429;-71
2023/12/04 00:20:13;;;;;;;14.15;10.73;;;0.30;99.90;;;;;;5027165;28;20418;-71
2023/12/04 00:22:40;;;;;;;11.90;10.60;;;0.20;99.90;;;;;;5029463;28;20940;-72
2023/12/04 00:25:08;;;;;;;11.30;9.90;;;0.30;99.90;;;;;;5020769;28;20417;-71
2023/12/04 00:27:34;;;;;;;12.00;10.70;;;0.20;99.90;;;;;;5026061;28;20411;-72
2023/12/04 00:30:03;;;;;;;13.45;10.43;;;0.20;99.90;;;;;;5019975;28;20899;-72
2023/12/04 00:32:30;;;;;;;11.30;10.10;;;0.20;99.90;;;;;;5030592;28;20419;-71
2023/12/04 00:34:57;;;;;;;11.73;10.57;;;0.20;99.90;;;;;;5027121;28;20497;-71
2023/12/04 00:37:25;;;;;;;12.20;10.80;;;0.30;99.90;;;;;;5025319;28;20440;-71
2023/12/04 00:39:52;;;;;;;12.23;10.93;;;0.20;99.90;;;;;;5024517;28;20423;-71
2023/12/04 00:42:19;;;;;;;11.63;10.32;;;0.20;99.90;;;;;;5030500;28;20917;-71
2023/12/04 00:44:45;;;;;;;13.07;10.75;;;0.20;99.90;;;;;;5025569;28;20445;-72
2023/12/04 00:47:12;;;;;;;10.73;9.57;;;0.20;99.90;;;;;;5022116;28;20490;-71
2023/12/04 00:49:39;;;;;;;10.48;9.30;;;0.20;99.90;;;;;;5031520;28;20416;-73
2023/12/04 00:52:06;;;;;;;12.18;10.02;;;0.20;99.90;;;;;;5035371;28;20411;-71
2023/12/04 00:54:34;;;;;;;11.40;10.00;;;0.20;99.90;;;;;;5024229;28;20438;-71
2023/12/04 00:57:01;;;;;;;11.13;9.85;;;0.20;99.90;;;;;;5028652;28;20434;-71
2023/12/04 00:59:27;;;;;;;11.75;10.55;;;0.20;99.90;;;;;;5028842;28;20418;-71
2023/12/04 01:01:54;;;;;;;11.50;10.00;;;0.20;99.90;;;;;;5032088;28;20419;-71
2023/12/04 01:04:21;;;;;;;10.60;9.30;;;0.20;99.90;;;;;;5028184;28;20435;-71
2023/12/04 01:06:47;;;;;;;11.45;9.60;;;0.20;99.90;;;;;;5030276;28;20442;-71
2023/12/04 01:09:14;;;;;;;10.68;9.20;;;0.20;99.90;;;;;;5026190;28;20411;-71
2023/12/04 01:11:42;;;;;;;11.67;9.70;;;0.20;99.90;;;;;;5030868;28;20431;-71
2023/12/04 01:14:09;;;;;;;10.63;9.45;;;0.20;99.90;;;;;;5029650;28;20501;-71
2023/12/04 01:16:36;;;;;;;11.40;9.30;;;0.10;99.90;;;;;;5026281;28;20410;-71
2023/12/04 01:19:02;;;;;;;10.30;9.30;;;0.10;99.90;;;;;;5035014;28;20441;-71
2023/12/04 01:21:29;;;;;;;11.00;9.70;;;0.10;99.90;;;;;;5024952;28;20982;-71
2023/12/04 01:23:56;;;;;;;10.68;9.57;;;0.20;99.90;;;;;;5026982;28;20415;-71
2023/12/04 01:26:22;;;;;;;11.57;9.63;;;0.10;99.90;;;;;;5028014;28;20929;-71
2023/12/04 01:28:50;;;;;;;10.00;9.00;;;0.10;99.90;;;;;;5030953;28;20430;-71
2023/12/04 01:31:17;;;;;;;10.98;9.38;;;0.10;99.90;;;;;;5027166;28;20419;-71
2023/12/04 01:33:44;;;;;;;10.68;9.57;;;0.10;99.90;;;;;;5023262;28;20910;-71
2023/12/04 01:36:11;;;;;;;11.43;10.23;;;0.10;99.90;;;;;;5028855;28;20434;-71
2023/12/04 01:38:38;;;;;;;10.70;9.60;;;0.10;99.90;;;;;;5024033;28;20428;-72
2023/12/04 01:41:06;;;;;;;11.27;9.57;;;0.10;99.90;;;;;;5031812;28;20454;-71
2023/12/04 01:43:33;;;;;;;10.00;9.00;;;0.10;99.90;;;;;;5035669;28;20438;-71
2023/12/04 01:46:02;;;;;;;10.05;9.00;;;0.20;99.90;;;;;;5026145;28;20438;-71
2023/12/04 01:48:30;;;;;;;12.35;9.82;;;0.20;99.90;;;;;;5026620;28;20844;-71
2023/12/04 01:50:59;;;;;;;10.90;9.63;;;0.20;99.90;;;;;;5027273;28;20418;-71
2023/12/04 01:53:26;;;;;;;10.30;9.20;;;0.20;99.90;;;;;;5028488;28;20419;-71
2023/12/04 01:55:52;;;;;;;10.50;9.40;;;0.20;99.90;;;;;;5027304;28;20825;-71
2023/12/04 01:58:19;;;;;;;10.70;9.60;;;0.20;99.90;;;;;;5022626;28;20427;-71
2023/12/04 02:00:46;;;;;;;10.60;9.50;;;0.10;99.90;;;;;;5029721;28;20418;-71
2023/12/04 02:03:15;;;;;;;10.13;9.13;;;0.10;99.90;;;;;;5027040;28;20797;-71
2023/12/04 02:05:44;;;;;;;10.57;9.48;;;0.10;99.90;;;;;;5026280;28;20411;-71
2023/12/04 02:08:11;;;;;;;10.50;9.40;;;0.10;99.90;;;;;;5022570;28;20806;-71
2023/12/04 02:10:39;;;;;;;10.98;9.77;;;0.10;99.90;;;;;;5024871;28;20436;-71
2023/12/04 02:13:06;;;;;;;10.17;9.07;;;0.10;99.90;;;;;;5022895;28;20488;-71
2023/12/04 02:15:33;;;;;;;10.05;8.68;;;0.10;99.90;;;;;;5024258;28;20420;-71
2023/12/04 02:18:00;;;;;;;10.18;9.00;;;0.10;99.90;;;;;;5022500;28;20431;-71
2023/12/04 02:20:34;;;;;;;10.68;9.20;;;0.10;99.90;;;;;;5036029;28;20417;-71
2023/12/04 02:23:01;;;;;;;11.55;10.13;;;0.10;99.90;;;;;;5024746;28;20415;-71
2023/12/04 02:25:29;;;;;;;9.70;8.70;;;0.10;99.90;;;;;;5021171;28;20437;-71
2023/12/04 02:27:59;;;;;;;10.48;9.10;;;0.10;99.90;;;;;;5030072;28;20462;-71
2023/12/04 02:30:29;;;;;;;9.75;8.85;;;0.10;99.90;;;;;;5031678;28;20797;-70
2023/12/04 02:32:59;;;;;;;10.02;9.00;;;0.20;99.90;;;;;;5029885;28;20415;-70
2023/12/04 02:35:30;;;;;;;10.20;9.10;;;0.10;99.90;;;;;;5031489;28;20419;-70
2023/12/04 02:37:58;;;;;;;10.02;8.70;;;0.20;99.90;;;;;;5034221;28;20438;-70
2023/12/04 02:40:25;;;;;;;10.38;9.20;;;0.10;99.90;;;;;;5034401;28;20421;-70
2023/12/04 02:42:53;;;;;;;9.25;8.35;;;0.10;99.90;;;;;;5027897;28;20419;-70
2023/12/04 02:45:20;;;;;;;10.77;9.48;;;0.20;99.90;;;;;;5062682;22;20447;-72
2023/12/04 02:47:46;;;;;;;10.40;9.30;;;0.10;99.90;;;;;;5053129;28;20429;-73
2023/12/04 02:50:13;;;;;;;9.65;8.75;;;0.10;99.90;;;;;;5059226;28;20984;-74
2023/12/04 02:52:40;;;;;;;9.43;8.48;;;0.10;99.90;;;;;;5057352;28;20414;-73
2023/12/04 02:55:07;;;;;;;10.25;9.15;;;0.10;99.90;;;;;;5047729;28;20478;-73
2023/12/04 02:57:34;;;;;;;9.90;8.90;;;0.10;99.90;;;;;;5064760;28;20415;-73
2023/12/04 03:00:03;;;;;;;9.60;8.60;;;0.10;99.90;;;;;;5055922;28;20408;-75
2023/12/04 03:02:30;;;;;;;9.05;8.15;;;0.10;99.90;;;;;;5062301;28;20894;-75
2023/12/04 03:04:56;;;;;;;9.70;8.65;;;0.10;99.90;;;;;;5060490;28;20898;-73
2023/12/04 03:07:24;;;;;;;8.90;7.95;;;0.10;99.90;;;;;;5054740;28;20439;-72
2023/12/04 03:09:51;;;;;;;9.15;8.18;;;0.20;99.90;;;;;;5052668;28;20912;-73
2023/12/04 03:12:17;;;;;;;9.32;8.38;;;0.10;99.90;;;;;;5051826;28;20539;-75
2023/12/04 03:14:44;;;;;;;9.68;8.68;;;0.10;99.90;;;;;;5059097;28;20411;-72
2023/12/04 03:17:12;;;;;;;9.55;8.65;;;0.10;99.90;;;;;;5068872;28;20399;-73
2023/12/04 03:19:39;;;;;;;10.15;9.15;;;0.10;99.90;;;;;;5076059;28;20476;-73
2023/12/04 03:22:05;;;;;;;9.48;8.50;;;0.10;99.90;;;;;;5076982;28;20437;-74
2023/12/04 03:24:32;;;;;;;9.68;8.68;;;0.10;99.90;;;;;;5075451;28;20643;-73
2023/12/04 03:26:59;;;;;;;8.98;8.07;;;0.10;99.90;;;;;;5082854;28;20415;-73
2023/12/04 03:29:25;;;;;;;10.52;8.85;;;0.10;99.90;;;;;;5077531;28;20417;-73
2023/12/04 03:31:51;;;;;;;9.88;8.88;;;0.10;99.90;;;;;;5055194;28;20450;-73
2023/12/04 03:34:19;;;;;;;10.05;8.45;;;0.10;99.90;;;;;;5060435;28;20884;-73
2023/12/04 03:36:46;;;;;;;8.55;7.65;;;0.00;99.90;;;;;;5058033;28;20435;-73
2023/12/04 03:39:13;;;;;;;9.40;8.40;;;0.00;99.90;;;;;;5053019;28;20433;-73
2023/12/04 03:41:39;;;;;;;9.38;8.48;;;0.10;99.90;;;;;;5049753;28;20499;-74
2023/12/04 03:44:06;;;;;;;9.50;8.15;;;0.00;99.90;;;;;;5064202;28;20420;-73
2023/12/04 03:46:33;;;;;;;9.15;8.25;;;0.10;99.90;;;;;;5054508;28;20419;-73
2023/12/04 03:49:00;;;;;;;9.95;8.95;;;0.00;99.90;;;;;;5056600;28;20407;-73
2023/12/04 03:51:28;;;;;;;9.32;8.38;;;0.00;99.90;;;;;;5055587;28;20426;-73
2023/12/04 03:53:55;;;;;;;10.18;8.63;;;0.10;99.90;;;;;;5052642;28;20531;-73
2023/12/04 03:56:21;;;;;;;9.93;8.77;;;0.00;99.90;;;;;;5063205;28;20431;-73
2023/12/04 03:58:48;;;;;;;9.70;8.70;;;0.00;99.90;;;;;;5064333;28;20478;-72
2023/12/04 04:01:15;;;;;;;9.40;8.50;;;0.00;99.90;;;;;;5059061;28;20422;-74
2023/12/04 04:03:42;;;;;;;9.75;8.75;;;0.00;99.90;;;;;;5061158;28;20414;-75
2023/12/04 04:06:10;;;;;;;10.40;8.90;;;0.00;99.90;;;;;;5055205;28;20417;-73
2023/12/04 04:08:38;;;;;;;10.35;9.30;;;0.00;99.90;;;;;;5055229;28;20425;-74
2023/12/04 04:11:05;;;;;;;10.27;9.23;;;0.00;99.90;;;;;;5056628;28;20527;-75
2023/12/04 04:13:31;;;;;;;9.88;8.88;;;0.00;99.90;;;;;;5060483;28;20465;-75
2023/12/04 04:15:58;;;;;;;10.25;8.98;;;0.00;99.90;;;;;;5056261;28;20417;-73
2023/12/04 04:18:25;;;;;;;10.50;9.40;;;0.00;99.90;;;;;;5053111;28;20429;-75
2023/12/04 04:20:52;;;;;;;11.20;9.82;;;0.00;99.90;;;;;;5062788;28;20860;-75
2023/12/04 04:23:18;;;;;;;10.18;8.93;;;-0.10;99.90;;;;;;5056091;28;20415;-73
2023/12/04 04:25:46;;;;;;;10.80;9.70;;;0.00;99.90;;;;;;5057043;28;20488;-75
2023/12/04 04:28:13;;;;;;;10.93;9.82;;;0.00;99.90;;;;;;5052170;28;20423;-75
2023/12/04 04:30:40;;;;;;;10.70;9.60;;;0.00;99.90;;;;;;5058385;28;20445;-75
2023/12/04 04:33:07;;;;;;;11.73;10.00;;;-0.10;99.90;;;;;;5062506;28;20423;-75
2023/12/04 04:35:33;;;;;;;10.98;9.88;;;0.00;99.90;;;;;;5048924;28;20413;-75
2023/12/04 04:38:00;;;;;;;10.90;9.80;;;-0.10;99.90;;;;;;5051794;28;20420;-75
2023/12/04 04:40:27;;;;;;;10.40;9.40;;;0.00;99.90;;;;;;5055095;28;20431;-75
2023/12/04 04:42:55;;;;;;;11.90;10.25;;;-0.10;99.90;;;;;;5059594;28;20415;-75
2023/12/04 04:45:21;;;;;;;11.70;9.98;;;-0.10;99.90;;;;;;5058631;28;20412;-75
2023/12/04 04:47:48;;;;;;;11.60;10.20;;;-0.10;99.90;;;;;;5063296;28;20430;-75
2023/12/04 04:50:15;;;;;;;10.68;9.57;;;-0.10;99.90;;;;;;5057267;28;20415;-75
2023/12/04 04:52:42;;;;;;;12.32;10.52;;;-0.10;99.90;;;;;;5057184;28;20886;-75
2023/12/04 04:55:09;;;;;;;11.23;10.13;;;-0.10;99.90;;;;;;5059795;28;20455;-74
2023/12/04 04:57:35;;;;;;;11.25;10.07;;;-0.10;99.90;;;;;;5063178;28;20403;-75
2023/12/04 05:00:04;;;;;;;11.95;10.00;;;-0.10;99.90;;;;;;5057976;28;20450;-74
2023/12/04 05:02:31;;;;;;;11.68;10.20;;;-0.10;99.90;;;;;;5054294;28;20415;-75
2023/12/04 05:04:57;;;;;;;11.27;9.60;;;-0.10;99.90;;;;;;5058537;28;20446;-75
2023/12/04 05:07:24;;;;;;;11.52;10.13;;;-0.10;99.90;;;;;;5055712;28;20518;-73
2023/12/04 05:09:51;;;;;;;11.45;9.90;;;-0.10;99.90;;;;;;5059055;28;20436;-74
2023/12/04 05:12:17;;;;;;;11.95;10.35;;;-0.10;99.90;;;;;;5063684;28;20427;-75
2023/12/04 05:14:44;;;;;;;11.35;10.18;;;-0.10;99.90;;;;;;5055383;28;20413;-75
2023/12/04 05:17:12;;;;;;;11.77;10.57;;;-0.10;99.90;;;;;;5055456;28;20412;-75
2023/12/04 05:19:39;;;;;;;11.45;10.25;;;-0.10;99.90;;;;;;5054873;28;20442;-75
2023/12/04 05:22:06;;;;;;;12.50;10.88;;;-0.10;99.90;;;;;;5056571;28;20411;-75
2023/12/04 05:24:32;;;;;;;11.80;10.30;;;-0.10;99.90;;;;;;5052007;28;20444;-75
2023/12/04 05:26:59;;;;;;;11.13;9.90;;;-0.10;99.90;;;;;;5063613;28;20443;-75
2023/12/04 05:29:26;;;;;;;11.75;10.55;;;-0.10;99.90;;;;;;5068556;28;20426;-75
2023/12/04 05:31:53;;;;;;;11.80;10.60;;;0.00;99.90;;;;;;5060177;28;20476;-74
2023/12/04 05:34:21;;;;;;;11.15;10.05;;;-0.10;99.90;;;;;;5057419;28;20752;-75
2023/12/04 05:36:48;;;;;;;12.43;11.13;;;-0.10;99.90;;;;;;5059233;28;20514;-75
2023/12/04 05:39:14;;;;;;;11.40;10.25;;;0.00;99.90;;;;;;5063562;28;20423;-75
2023/12/04 05:41:41;;;;;;;12.32;11.00;;;-0.10;99.90;;;;;;5060447;28;20419;-75
2023/12/04 05:44:08;;;;;;;12.60;11.30;;;0.00;99.90;;;;;;5062088;28;20532;-76
2023/12/04 05:46:34;;;;;;;13.55;11.13;;;0.00;99.90;;;;;;5062527;28;20423;-77
2023/12/04 05:49:01;;;;;;;12.30;11.00;;;0.00;99.90;;;;;;5066347;28;20411;-75
2023/12/04 05:51:29;;;;;;;12.23;10.93;;;0.00;99.90;;;;;;5076914;28;20398;-76
2023/12/04 05:53:56;;;;;;;12.57;11.37;;;-0.10;99.90;;;;;;5076540;28;20434;-76
2023/12/04 05:56:23;;;;;;;13.10;11.70;;;-0.10;99.90;;;;;;5076868;28;20431;-75
2023/12/04 05:58:49;;;;;;;12.25;11.02;;;0.00;99.90;;;;;;5070320;28;20498;-75
2023/12/04 06:01:16;;;;;;;13.07;11.20;;;-0.10;99.90;;;;;;5059719;28;20435;-76
2023/12/04 06:03:43;;;;;;;12.77;11.30;;;0.00;99.90;;;;;;5061939;28;20421;-75
2023/12/04 06:06:10;;;;;;;13.20;11.55;;;-0.10;99.90;;;;;;5068092;28;20420;-75
2023/12/04 06:08:38;;;;;;;13.65;12.13;;;0.00;99.90;;;;;;5065604;28;20428;-75
2023/12/04 06:11:05;;;;;;;13.50;12.10;;;-0.10;99.90;;;;;;5061345;28;20421;-75
2023/12/04 06:13:31;;;;;;;13.65;12.10;;;-0.10;99.90;;;;;;5062886;28;20408;-75
2023/12/04 06:15:58;;;;;;;12.52;11.23;;;-0.10;99.90;;;;;;5064821;28;20457;-75
2023/12/04 06:18:25;;;;;;;12.60;11.30;;;-0.10;99.90;;;;;;5063766;28;20438;-75
2023/12/04 06:20:52;;;;;;;13.40;12.00;;;-0.10;99.90;;;;;;5058403;28;20449;-76
2023/12/04 06:23:19;;;;;;;13.77;12.38;;;-0.10;99.90;;;;;;5061657;28;20737;-75
2023/12/04 06:25:48;;;;;;;13.30;11.90;;;-0.10;99.90;;;;;;5061824;28;20416;-75
2023/12/04 06:28:15;;;;;;;13.93;12.13;;;-0.10;99.90;;;;;;5059732;28;20427;-75
2023/12/04 06:30:42;;;;;;;13.35;11.95;;;0.00;99.90;;;;;;5059546;28;20499;-75
2023/12/04 06:33:09;;;;;;;13.13;11.73;;;0.00;99.90;;;;;;5060789;28;20433;-75
2023/12/04 06:35:37;;;;;;;13.57;12.18;;;-0.10;99.90;;;;;;5052452;28;20424;-75
2023/12/04 06:38:07;;;;;;;14.05;12.65;;;-0.10;99.90;;;;;;5063122;28;20961;-74
2023/12/04 06:40:35;;;;;;;13.82;12.40;;;0.00;99.90;;;;;;5061436;28;20478;-75
2023/12/04 06:43:04;;;;;;;13.77;12.38;;;0.00;99.90;;;;;;5058767;28;20411;-75
2023/12/04 06:45:32;;;;;;;13.80;12.40;;;0.00;99.90;;;;;;5062955;28;20426;-72
2023/12/04 06:48:00;;;;;;;13.70;12.30;;;0.00;99.90;;;;;;5061877;28;20596;-72
2023/12/04 06:50:27;;;;;;;13.60;12.20;;;0.00;99.90;;;;;;5058020;28;20408;-73
2023/12/04 06:52:53;;;;;;;13.60;12.30;;;0.00;99.90;;;;;;5057489;28;20553;-74
2023/12/04 06:55:20;;;;;;;14.70;11.73;;;0.00;99.90;;;;;;5055158;28;20437;-74
2023/12/04 06:57:47;;;;;;;13.48;12.18;;;0.00;99.90;;;;;;5057231;28;20423;-74
2023/12/04 07:00:16;;;;;;;12.75;11.45;;;0.00;99.90;;;;;;5057754;28;20452;-74
2023/12/04 07:02:43;;;;;;;12.73;11.32;;;0.00;99.90;;;;;;5060069;28;20419;-74
2023/12/04 07:05:10;;;;;;;13.35;12.05;;;0.00;99.90;;;;;;5057622;28;20408;-74
2023/12/04 07:07:37;;;;;;;13.13;11.82;;;0.00;99.90;;;;;;5057457;28;20436;-74
2023/12/04 07:10:04;;;;;;;13.07;11.68;;;0.00;99.90;;;;;;5057266;28;20416;-74
2023/12/04 07:12:30;;;;;;;13.18;11.77;;;0.00;99.90;;;;;;5059869;28;20411;-74
2023/12/04 07:14:57;;;;;;;12.30;11.00;;;0.00;99.90;;;;;;5049432;28;20423;-74
2023/12/04 07:17:25;;;;;;;12.43;11.10;;;0.00;99.90;;;;;;5061598;28;20419;-74
2023/12/04 07:19:52;;;;;;;13.20;11.90;;;0.00;99.90;;;;;;5053500;28;20428;-74
2023/12/04 07:22:19;;;;;;;12.93;11.52;;;0.00;99.90;;;;;;5062464;28;20407;-74
2023/12/04 07:24:46;;;;;;;12.63;11.05;;;0.00;99.90;;;;;;5058514;28;20411;-74
2023/12/04 07:27:12;;;;;;;12.05;10.45;;;0.00;99.90;;;;;;5050661;28;20413;-74
2023/12/04 07:29:39;;;;;;;12.20;10.90;;;0.00;99.90;;;;;;5055152;28;20438;-74
2023/12/04 07:32:07;;;;;;;12.23;10.70;;;0.00;99.90;;;;;;5059631;28;20866;-74
2023/12/04 07:34:36;;;;;;;11.80;10.60;;;0.00;99.90;;;;;;5064344;28;20414;-74
2023/12/04 07:37:03;;;;;;;11.57;10.35;;;0.00;99.90;;;;;;5057673;28;20502;-74
2023/12/04 07:39:30;;;;;;;10.57;9.57;;;0.00;99.90;;;;;;5061151;28;20963;-74
2023/12/04 07:41:57;;;;;;;11.00;9.80;;;0.10;99.90;;;;;;5059105;28;20446;-74
2023/12/04 07:44:23;;;;;;;11.13;10.00;;;0.10;99.90;;;;;;5053485;28;20547;-74
2023/12/04 07:46:50;;;;;;;12.05;10.85;;;0.10;99.90;;;;;;5060955;28;20439;-74
2023/12/04 07:49:17;;;;;;;11.73;10.52;;;0.10;99.90;;;;;;5058079;28;20910;-74
2023/12/04 07:51:45;;;;;;;11.37;10.17;;;0.10;99.90;;;;;;5056741;28;20446;-74
2023/12/04 07:54:12;;;;;;;11.02;9.93;;;0.10;99.90;;;;;;5058616;28;20444;-74
2023/12/04 07:56:38;;;;;;;11.50;10.30;;;0.10;99.90;;;;;;5056183;28;20534;-74
2023/12/04 07:59:05;;;;;;;11.60;10.40;;;0.10;99.90;;;;;;5055254;28;21130;-74
2023/12/04 08:01:32;;;;;;;11.30;10.10;;;0.10;99.90;;;;;;5057342;28;20541;-75
2023/12/04 08:03:59;;;;;;;11.50;10.20;;;0.10;99.90;;;;;;5053516;28;20439;-74
2023/12/04 08:06:25;;;;;;;11.40;10.20;;;0.10;99.90;;;;;;5055385;28;20498;-75
2023/12/04 08:08:54;;;;;;;11.70;10.50;;;0.10;99.90;;;;;;5057372;28;20424;-74
2023/12/04 08:11:21;;;;;;;11.70;10.50;;;0.10;99.90;;;;;;5059285;28;20487;-73
2023/12/04 08:13:47;;;;;;;10.40;9.30;;;0.10;99.90;;;;;;5054207;28;20431;-73
2023/12/04 08:16:15;;;;;;;10.70;9.60;;;0.10;99.90;;;;;;5062458;28;20984;-74
2023/12/04 08:18:43;;;;;;;11.52;10.32;;;0.10;99.90;;;;;;5054087;28;20431;-74
2023/12/04 08:21:10;;;;;;;10.87;9.77;;;0.20;99.90;;;;;;5072053;28;20470;-74
2023/12/04 08:23:36;;;;;;;12.05;10.45;;;0.20;99.90;;;;;;5062402;28;20450;-74
2023/12/04 08:26:05;;;;;;;11.25;10.05;;;0.20;99.90;;;;;;5065840;28;20612;-74
2023/12/04 08:28:32;;;;;;;10.30;9.30;;;0.20;99.90;;;;;;5063635;28;20440;-73
2023/12/04 08:30:58;;;;;;;11.93;10.75;;;0.20;99.90;;;;;;5064494;28;20431;-73
2023/12/04 08:33:25;;;;;;;10.73;9.63;;;0.20;99.90;;;;;;5065519;28;20911;-73
2023/12/04 08:35:52;;;;;;;10.70;9.60;;;0.20;99.90;;;;;;5052093;28;20958;-72
2023/12/04 08:38:19;;;;;;;11.10;9.90;;;0.20;99.90;;;;;;5058922;28;20436;-78
2023/12/04 08:40:46;;;;;;;10.57;9.48;;;0.20;99.90;;;;;;5056037;28;20436;-76
2023/12/04 08:43:14;;;;;;;11.73;10.52;;;0.30;99.90;;;;;;5056982;28;20519;-70
2023/12/04 08:45:40;;;;;;;11.00;9.90;;;0.30;99.90;;;;;;5063727;28;20423;-70
2023/12/04 08:48:07;;;;;;;10.88;9.88;;;0.30;99.90;;;;;;5053955;28;20949;-70
2023/12/04 08:50:34;;;;;;;11.13;9.73;;;0.30;99.90;;;;;;5061477;28;20511;-72
2023/12/04 08:53:01;;;;;;;11.25;10.15;;;0.30;99.90;;;;;;5054821;28;20435;-70
2023/12/04 08:55:27;;;;;;;11.15;10.05;;;0.30;99.90;;;;;;5057779;28;20809;-70
2023/12/04 08:57:54;;;;;;;13.23;10.48;;;0.30;99.90;;;;;;5061580;28;20712;-71
2023/12/04 09:00:23;;;;;;;10.98;9.88;;;0.30;99.90;;;;;;5063575;28;20841;-71
2023/12/04 09:02:49;;;;;;;10.53;9.53;;;0.30;99.90;;;;;;5081571;28;20440;-70
2023/12/04 09:05:16;;;;;;;10.70;9.60;;;0.30;99.90;;;;;;5076295;28;20568;-71
2023/12/04 09:07:43;;;;;;;10.82;9.73;;;0.30;99.90;;;;;;5076849;28;20440;-70
2023/12/04 09:10:10;;;;;;;11.13;9.93;;;0.30;99.90;;;;;;5076530;28;20485;-70
2023/12/04 09:12:37;;;;;;;10.25;9.23;;;0.30;99.90;;;;;;5063018;28;20442;-70
2023/12/04 09:15:05;;;;;;;10.65;9.55;;;0.30;99.90;;;;;;5063698;28;20965;-71
2023/12/04 09:17:34;;;;;;;11.35;9.30;;;0.30;99.90;;;;;;5059452;28;21019;-71
2023/12/04 09:20:00;;;;;;;10.90;9.90;;;0.30;99.90;;;;;;5070103;28;20522;-70
2023/12/04 09:22:28;;;;;;;10.07;8.98;;;0.40;99.90;;;;;;5077514;28;20431;-70
2023/12/04 09:24:54;;;;;;;9.80;8.80;;;0.40;99.90;;;;;;5068439;28;20477;-71
2023/12/04 09:27:22;;;;;;;9.63;8.53;;;0.40;99.90;;;;;;5059807;28;20803;-70
2023/12/04 09:29:48;;;;;;;9.70;8.70;;;0.40;99.90;;;;;;5064918;28;20530;-70
2023/12/04 09:32:15;;;;;;;9.43;8.53;;;0.50;99.90;;;;;;5067581;28;20431;-71
2023/12/04 09:34:43;;;;;;;10.27;9.18;;;0.50;99.90;;;;;;5068898;28;20658;-71
2023/12/04 09:37:10;;;;;;;9.60;8.60;;;0.50;99.90;;;;;;5081524;28;20435;-71
2023/12/04 09:39:36;;;;;;;9.70;8.70;;;0.50;99.90;;;;;;5081862;28;20411;-72
2023/12/04 09:42:04;;;;;;;10.60;9.57;;;0.50;99.90;;;;;;5078556;28;20627;-72
2023/12/04 09:44:31;;;;;;;10.93;9.02;;;0.50;99.90;;;;;;5085809;28;20445;-72
2023/12/04 09:46:59;;;;;;;10.20;9.20;;;0.50;99.90;;;;;;5076041;28;20442;-71
2023/12/04 09:49:29;;;;;;;9.90;8.90;;;0.50;99.90;;;;;;5070824;28;20502;-71
2023/12/04 09:51:58;;;;;;;10.10;9.10;;;0.50;99.90;;;;;;5082228;28;20552;-71
2023/12/04 09:54:26;;;;;;;10.00;9.00;;;0.50;99.90;;;;;;5068161;28;20455;-71
2023/12/04 09:56:53;;;;;;;9.45;8.50;;;0.50;99.90;;;;;;5076291;28;20471;-71
2023/12/04 09:59:24;;;;;;;9.88;8.88;;;0.60;99.90;;;;;;5073874;28;20416;-71
2023/12/04 10:01:52;;;;;;;10.10;9.05;;;0.60;99.90;;;;;;5064920;28;20450;-72
2023/12/04 10:04:18;;;;;;;10.05;9.05;;;0.60;99.90;;;;;;5060390;28;20423;-72
2023/12/04 10:06:46;;;;;;;9.73;8.73;;;0.70;99.90;;;;;;5063313;28;20431;-72
2023/12/04 10:09:15;;;;;;;9.60;8.60;;;0.70;99.90;;;;;;5056202;28;20449;-71
2023/12/04 10:11:42;;;;;;;9.57;8.48;;;0.70;99.90;;;;;;5059749;28;20533;-73
2023/12/04 10:14:16;;;;;;;9.20;8.30;;;0.70;99.90;;;;;;5061611;28;20521;-72
2023/12/04 10:16:44;;;;;;;9.60;8.60;;;0.70;99.90;;;;;;5067084;28;20439;-72
2023/12/04 10:19:19;;;;;;;9.52;8.52;;;0.70;99.90;;;;;;5065412;28;20862;-72
2023/12/04 10:21:47;;;;;;;9.48;8.48;;;0.70;99.90;;;;;;5065720;28;20519;-71
2023/12/04 10:24:31;;;;;;;9.10;8.20;;;0.70;99.90;;;;;;5062780;28;20455;-71
2023/12/04 10:26:58;;;;;;;8.90;7.97;;;0.70;99.90;;;;;;5067663;28;20514;-72
2023/12/04 10:29:41;;;;;;;9.93;8.93;;;0.80;99.90;;;;;;5060931;28;20844;-72
2023/12/04 10:32:08;;;;;;;9.40;8.50;;;0.80;99.90;;;;;;5058485;28;20526;-71
2023/12/04 10:34:35;;;;;;;9.10;8.30;;;0.80;99.90;;;;;;5058629;28;20425;-71
2023/12/04 10:37:03;;;;;;;9.02;8.13;;;0.80;99.90;;;;;;5057877;28;20524;-72
2023/12/04 10:39:31;;;;;;;9.40;8.40;;;0.80;99.90;;;;;;5047804;28;20436;-72
2023/12/04 10:42:02;;;;;;;9.30;8.40;;;0.90;99.90;;;;;;5058000;28;20883;-71
2023/12/04 10:44:30;;;;;;;9.90;8.10;;;0.80;99.90;;;;;;5054787;28;20481;-72
2023/12/04 10:46:59;;;;;;;8.25;7.45;;;0.90;99.90;;;;;;5065466;28;20910;-71
2023/12/04 10:49:28;;;;;;;10.20;9.15;;;0.80;99.90;;;;;;5057750;28;20423;-71
2023/12/04 10:51:58;;;;;;;8.90;8.00;;;0.80;99.90;;;;;;5074393;28;20450;-71
2023/12/04 10:54:24;;;;;;;9.38;8.38;;;0.90;99.90;;;;;;5065496;28;20485;-71
2023/12/04 10:56:57;;;;;;;9.52;8.10;;;0.90;99.90;;;;;;5062679;28;20431;-71
2023/12/04 10:59:31;;;;;;;9.20;8.13;;;0.90;99.90;;;;;;5063790;28;20435;-71
2023/12/04 11:02:02;;;;;;;9.65;8.65;;;0.90;99.90;;;;;;5061275;28;20431;-72
2023/12/04 11:04:32;;;;;;;10.07;9.07;;;0.90;99.90;;;;;;5064104;28;20537;-72
2023/12/04 11:07:03;;;;;;;9.70;8.32;;;0.90;99.90;;;;;;5061005;28;20423;-72
2023/12/04 11:09:32;;;;;;;11.07;8.50;;;0.90;99.90;;;;;;5055317;28;20433;-71
2023/12/04 11:12:04;;;;;;;11.20;9.40;;;0.90;99.90;;;;;;5062251;28;20431;-71
2023/12/04 11:14:45;;;;;;;9.60;8.60;;;1.00;99.90;;;;;;5050157;28;20558;-72
2023/12/04 11:17:15;;;;;;;10.23;9.13;;;0.90;99.90;;;;;;5064256;28;20438;-71
2023/12/04 11:19:50;;;;;;;9.85;8.65;;;0.90;99.90;;;;;;5058062;28;20423;-71
2023/12/04 11:22:20;;;;;;;9.70;8.70;;;0.90;99.90;;;;;;5053897;28;20972;-71
2023/12/04 11:24:47;;;;;;;9.77;8.88;;;0.90;99.90;;;;;;5051218;28;20580;-69
2023/12/04 11:27:16;;;;;;;10.20;9.07;;;0.90;99.90;;;;;;5062617;28;20424;-72
2023/12/04 11:29:43;;;;;;;9.82;8.82;;;0.90;99.90;;;;;;5059798;28;20430;-71
2023/12/04 11:32:15;;;;;;;9.77;8.88;;;0.90;99.90;;;;;;5059056;28;20431;-72
2023/12/04 11:34:48;;;;;;;10.20;9.20;;;0.90;99.90;;;;;;5059555;28;20492;-72
2023/12/04 11:37:15;;;;;;;10.13;9.13;;;0.90;99.90;;;;;;5057916;28;20400;-72
2023/12/04 11:39:42;;;;;;;12.70;10.23;;;0.80;99.90;;;;;;5056670;28;20432;-72
2023/12/04 11:42:11;;;;;;;12.10;10.82;;;0.80;99.90;;;;;;5048818;28;20434;-72
2023/12/04 11:44:42;;;;;;;13.07;11.00;;;0.80;99.90;;;;;;5062174;28;20505;-72
2023/12/04 11:47:09;;;;;;;19.40;13.00;;;0.70;99.90;;;;;;5049726;28;20430;-72
2023/12/04 11:49:35;;;;;;;17.10;12.10;;;0.70;99.90;;;;;;5056765;28;20477;-72
2023/12/04 11:52:04;;;;;;;19.35;13.15;;;0.60;99.90;;;;;;5055361;28;20439;-72
2023/12/04 11:54:59;;;;;;;17.30;13.65;;;0.60;99.90;;;;;;5062858;28;20435;-72
2023/12/04 11:57:29;;;;;;;13.50;11.88;;;0.60;99.90;;;;;;5059696;28;20829;-72
2023/12/04 12:00:14;;;;;;;17.20;13.07;;;0.60;99.90;;;;;;5058633;28;20566;-72
2023/12/04 12:02:42;;;;;;;15.25;12.73;;;0.60;99.90;;;;;;5063253;28;20526;-73
2023/12/04 12:05:09;;;;;;;15.95;12.65;;;0.60;99.90;;;;;;5064333;28;20767;-73
2023/12/04 12:07:36;;;;;;;15.03;12.30;;;0.60;99.90;;;;;;5071491;28;20422;-71
2023/12/04 12:10:03;;;;;;;14.27;11.67;;;0.60;99.90;;;;;;5082043;28;20520;-73
2023/12/04 12:12:31;;;;;;;14.38;12.70;;;0.60;99.90;;;;;;5078494;28;20404;-73
2023/12/04 12:14:58;;;;;;;16.98;13.25;;;0.60;99.90;;;;;;5081997;28;20482;-72
2023/12/04 12:17:26;;;;;;;15.45;12.82;;;0.70;99.90;;;;;;5069819;28;20433;-71
2023/12/04 12:19:53;;;;;;;13.55;12.00;;;0.60;99.90;;;;;;5057464;28;20437;-70
2023/12/04 12:22:20;;;;;;;16.65;13.20;;;0.60;99.90;;;;;;5058386;28;20429;-70
2023/12/04 12:24:47;;;;;;;14.05;11.98;;;0.60;99.90;;;;;;5059896;28;20515;-72
2023/12/04 12:27:13;;;;;;;14.25;12.40;;;0.60;99.90;;;;;;5065220;28;20454;-71
2023/12/04 12:29:40;;;;;;;14.30;12.10;;;0.60;99.90;;;;;;5062842;28;20432;-72
2023/12/04 12:32:07;;;;;;;14.63;13.13;;;0.60;99.90;;;;;;5059220;28;20914;-72
2023/12/04 12:34:36;;;;;;;14.83;12.47;;;0.60;99.90;;;;;;5057550;28;20439;-72
2023/12/04 12:37:05;;;;;;;16.73;12.52;;;0.60;99.90;;;;;;5056293;28;20424;-72
2023/12/04 12:39:32;;;;;;;15.68;13.02;;;0.60;99.90;;;;;;5060635;28;20519;-72
2023/12/04 12:41:59;;;;;;;15.37;12.93;;;0.60;99.90;;;;;;5061799;28;20427;-73
2023/12/04 12:44:27;;;;;;;17.10;12.70;;;0.60;99.90;;;;;;5062065;28;20454;-72